createdAt,value
2018-02-19T00:00:21.164Z,39.50
2018-02-19T00:02:25.269Z,36.07
2018-02-19T00:04:28.628Z,42.37
2018-02-19T00:06:32.747Z,37.83
2018-02-19T00:08:36.876Z,41.67
2018-02-19T00:10:40.298Z,40.47
2018-02-19T00:12:43.639Z,38.00
2018-02-19T00:14:47.775Z,42.20
2018-02-19T00:16:51.114Z,38.63
2018-02-19T00:18:54.488Z,40.10
2018-02-19T00:20:57.821Z,44.03
2018-02-19T00:23:01.935Z,38.07
2018-02-19T00:25:06.121Z,37.93
2018-02-19T00:27:09.450Z,45.17
2018-02-19T00:29:12.826Z,38.33
2018-02-19T00:31:16.958Z,36.17
2018-02-19T00:33:20.315Z,34.93
2018-02-19T00:35:23.683Z,42.20
2018-02-19T00:37:27.086Z,38.73
2018-02-19T00:39:30.466Z,41.43
2018-02-19T00:41:33.790Z,40.40
2018-02-19T00:43:37.130Z,43.43
2018-02-19T00:45:40.501Z,38.57
2018-02-19T00:47:43.844Z,45.00
2018-02-19T00:49:47.210Z,41.73
2018-02-19T00:51:50.601Z,40.13
2018-02-19T00:53:53.922Z,42.30
2018-02-19T00:55:58.061Z,40.57
2018-02-19T00:58:02.161Z,39.43
2018-02-19T01:00:05.504Z,36.07
2018-02-19T01:02:09.744Z,37.40
2018-02-19T01:04:13.862Z,40.87
2018-02-19T01:06:17.347Z,39.97
2018-02-19T01:08:21.460Z,43.07
2018-02-19T01:10:24.874Z,38.90
2018-02-19T01:12:28.994Z,37.90
2018-02-19T01:14:32.314Z,42.63
2018-02-19T01:16:35.701Z,40.80
2018-02-19T01:18:39.060Z,36.30
2018-02-19T01:20:43.149Z,38.33
2018-02-19T01:22:47.321Z,37.30
2018-02-19T01:24:50.661Z,42.03
2018-02-19T01:26:54.767Z,42.87
2018-02-19T01:28:58.177Z,43.70
2018-02-19T01:31:01.503Z,40.87
2018-02-19T01:33:04.905Z,34.50
2018-02-19T01:35:08.235Z,40.30
2018-02-19T01:37:12.344Z,38.93
2018-02-19T01:39:15.737Z,41.60
2018-02-19T01:41:19.104Z,39.97
2018-02-19T01:43:22.445Z,43.07
2018-02-19T01:45:25.821Z,42.37
2018-02-19T01:47:29.177Z,36.03
2018-02-19T01:49:32.527Z,33.97
2018-02-19T01:51:35.882Z,42.63
2018-02-19T01:53:39.999Z,38.90
2018-02-19T01:55:44.142Z,41.00
2018-02-19T01:57:47.508Z,38.27
2018-02-19T01:59:50.888Z,39.57
2018-02-19T02:01:54.987Z,45.37
2018-02-19T02:03:58.327Z,39.40
2018-02-19T02:06:01.695Z,37.63
2018-02-19T02:08:05.800Z,44.13
2018-02-19T02:10:09.168Z,35.67
2018-02-19T02:12:12.519Z,38.40
2018-02-19T02:14:15.918Z,35.90
2018-02-19T02:16:19.276Z,40.20
2018-02-19T02:18:22.614Z,36.53
2018-02-19T02:20:25.946Z,41.57
2018-02-19T02:22:30.549Z,46.87
2018-02-19T02:24:33.894Z,44.20
2018-02-19T02:26:37.241Z,47.67
2018-02-19T02:28:40.562Z,45.20
2018-02-19T02:30:43.886Z,41.73
2018-02-19T02:32:47.211Z,40.70
2018-02-19T02:34:51.326Z,37.80
2018-02-19T02:36:55.485Z,50.07
2018-02-19T02:38:58.832Z,39.57
2018-02-19T02:41:02.946Z,40.70
2018-02-19T02:43:07.090Z,43.17
2018-02-19T02:45:10.438Z,41.73
2018-02-19T02:47:13.798Z,47.30
2018-02-19T02:49:17.120Z,47.27
2018-02-19T02:51:20.432Z,42.70
2018-02-19T02:53:23.823Z,42.00
2018-02-19T02:55:27.170Z,42.67
2018-02-19T02:57:30.520Z,45.30
2018-02-19T02:59:33.876Z,36.93
2018-02-19T03:01:37.994Z,37.60
2018-02-19T03:03:42.125Z,41.60
2018-02-19T03:05:45.457Z,41.43
2018-02-19T03:07:48.799Z,41.50
2018-02-19T03:09:52.165Z,40.57
2018-02-19T03:11:55.506Z,41.50
2018-02-19T03:13:58.874Z,39.73
2018-02-19T03:16:02.190Z,37.87
2018-02-19T03:18:05.529Z,31.97
2018-02-19T03:20:09.679Z,33.23
2018-02-19T03:22:13.013Z,34.00
2018-02-19T03:24:16.356Z,32.87
2018-02-19T03:26:19.765Z,35.10
2018-02-19T03:28:23.127Z,37.40
2018-02-19T03:30:26.529Z,34.33
2018-02-19T03:32:29.875Z,33.13
2018-02-19T03:34:33.238Z,36.93
2018-02-19T03:36:36.609Z,37.23
2018-02-19T03:38:39.977Z,34.60
2018-02-19T03:40:43.345Z,32.47
2018-02-19T03:42:47.516Z,32.67
2018-02-19T03:44:50.855Z,31.73
2018-02-19T03:46:54.227Z,33.30
2018-02-19T03:48:57.578Z,36.90
2018-02-19T03:51:00.941Z,33.97
2018-02-19T03:53:05.029Z,30.90
2018-02-19T03:55:08.387Z,33.10
2018-02-19T03:57:11.806Z,36.53
2018-02-19T03:59:15.129Z,34.93
2018-02-19T04:01:19.304Z,35.93
2018-02-19T04:03:23.490Z,35.73
2018-02-19T04:05:26.836Z,34.00
2018-02-19T04:07:30.984Z,33.43
2018-02-19T04:09:34.318Z,33.17
2018-02-19T04:11:37.671Z,29.03
2018-02-19T04:13:41.800Z,32.40
2018-02-19T04:15:45.130Z,34.60
2018-02-19T04:17:48.496Z,36.40
2018-02-19T04:19:51.859Z,28.17
2018-02-19T04:21:55.964Z,26.60
2018-02-19T04:23:59.366Z,26.17
2018-02-19T04:26:02.710Z,29.03
2018-02-19T04:28:06.811Z,28.73
2018-02-19T04:30:10.224Z,28.77
2018-02-19T04:32:14.317Z,28.57
2018-02-19T04:34:18.448Z,28.20
2018-02-19T04:36:21.777Z,29.53
2018-02-19T04:38:25.129Z,25.80
2018-02-19T04:40:28.519Z,33.90
2018-02-19T04:42:31.881Z,30.30
2018-02-19T04:44:39.698Z,28.60
2018-02-19T04:46:43.053Z,27.70
2018-02-19T04:48:46.398Z,26.37
2018-02-19T04:50:49.868Z,26.00
2018-02-19T04:52:54.122Z,26.40
2018-02-19T04:54:57.490Z,29.70
2018-02-19T04:57:00.866Z,30.43
2018-02-19T04:59:04.939Z,28.27
2018-02-19T05:01:08.327Z,30.33
2018-02-19T05:03:11.656Z,27.83
2018-02-19T05:05:15.761Z,29.60
2018-02-19T05:07:19.896Z,29.50
2018-02-19T05:09:23.238Z,29.57
2018-02-19T05:11:26.614Z,26.90
2018-02-19T05:13:29.969Z,31.93
2018-02-19T05:15:33.326Z,24.90
2018-02-19T05:17:36.656Z,30.10
2018-02-19T05:19:39.999Z,31.50
2018-02-19T05:21:43.365Z,28.00
2018-02-19T05:23:46.709Z,22.53
2018-02-19T05:25:50.063Z,23.27
2018-02-19T05:27:54.187Z,25.10
2018-02-19T05:29:57.534Z,24.43
2018-02-19T05:32:00.897Z,23.40
2018-02-19T05:34:04.259Z,22.53
2018-02-19T05:36:07.585Z,28.60
2018-02-19T05:38:10.940Z,25.53
2018-02-19T05:40:14.265Z,24.40
2018-02-19T05:42:17.666Z,25.57
2018-02-19T05:44:21.009Z,22.17
2018-02-19T05:46:25.136Z,26.67
2018-02-19T05:48:28.491Z,28.63
2018-02-19T05:50:31.846Z,23.17
2018-02-19T05:52:35.926Z,26.37
2018-02-19T05:54:39.279Z,23.90
2018-02-19T05:56:43.260Z,34.27
2018-02-19T05:58:48.309Z,26.13
2018-02-19T06:00:52.424Z,23.40
2018-02-19T06:02:55.788Z,25.00
2018-02-19T06:04:59.116Z,22.63
2018-02-19T06:07:02.475Z,24.13
2018-02-19T06:09:05.887Z,21.00
2018-02-19T06:11:10.211Z,25.47
2018-02-19T06:13:13.549Z,24.63
2018-02-19T06:15:17.693Z,26.87
2018-02-19T06:17:21.109Z,29.33
2018-02-19T06:19:24.487Z,26.67
2018-02-19T06:21:29.113Z,22.90
2018-02-19T06:23:33.644Z,25.40
2018-02-19T06:25:37.039Z,23.73
2018-02-19T06:27:40.582Z,23.80
2018-02-19T06:29:44.101Z,23.77
2018-02-19T06:31:47.596Z,23.47
2018-02-19T06:33:51.216Z,23.63
2018-02-19T06:35:54.780Z,22.53
2018-02-19T06:37:58.269Z,27.27
2018-02-19T06:40:01.811Z,22.50
2018-02-19T06:42:05.334Z,20.53
2018-02-19T06:44:08.831Z,24.73
2018-02-19T06:46:12.313Z,19.60
2018-02-19T06:48:15.889Z,23.30
2018-02-19T06:50:20.102Z,22.80
2018-02-19T06:52:23.581Z,23.73
2018-02-19T06:54:27.088Z,21.33
2018-02-19T06:56:30.706Z,25.87
2018-02-19T06:58:35.000Z,22.03
2018-02-19T07:00:39.286Z,23.37
2018-02-19T07:02:42.897Z,24.57
2018-02-19T07:04:46.423Z,22.13
2018-02-19T07:06:49.981Z,22.83
2018-02-19T07:08:54.345Z,22.03
2018-02-19T07:10:57.941Z,24.40
2018-02-19T07:13:02.242Z,26.17
2018-02-19T07:15:05.817Z,24.93
2018-02-19T07:17:09.390Z,22.23
2018-02-19T07:19:12.879Z,22.90
2018-02-19T07:21:16.553Z,20.47
2018-02-19T07:23:20.036Z,28.00
2018-02-19T07:25:23.627Z,23.27
2018-02-19T07:27:27.212Z,24.80
2018-02-19T07:29:31.527Z,26.00
2018-02-19T07:31:35.038Z,34.37
2018-02-19T07:33:38.476Z,33.20
2018-02-19T07:35:42.182Z,36.80
2018-02-19T07:37:45.621Z,29.90
2018-02-19T07:39:49.927Z,30.43
2018-02-19T07:41:54.256Z,29.50
2018-02-19T07:43:58.526Z,34.37
2018-02-19T07:46:02.083Z,35.57
2018-02-19T07:48:05.580Z,28.60
2018-02-19T07:50:09.206Z,23.50
2018-02-19T07:52:12.781Z,26.33
2018-02-19T07:54:16.307Z,24.00
2018-02-19T07:56:19.969Z,24.87
2018-02-19T07:58:23.544Z,19.77
2018-02-19T08:00:27.873Z,18.77
2018-02-19T08:02:31.560Z,18.20
2018-02-19T08:04:35.057Z,22.23
2018-02-19T08:06:39.370Z,19.67
2018-02-19T08:08:43.007Z,23.00
2018-02-19T08:10:46.545Z,21.97
2018-02-19T08:12:50.074Z,28.10
2018-02-19T08:14:53.486Z,23.57
2018-02-19T08:16:56.983Z,23.80
2018-02-19T08:19:00.526Z,23.57
2018-02-19T08:21:04.084Z,26.63
2018-02-19T08:23:07.724Z,25.10
2018-02-19T08:25:11.299Z,23.90
2018-02-19T08:27:14.912Z,24.80
2018-02-19T08:29:18.375Z,22.37
2018-02-19T08:31:22.311Z,26.97
2018-02-19T08:33:26.763Z,18.30
2018-02-19T08:35:30.391Z,23.20
2018-02-19T08:37:34.730Z,23.40
2018-02-19T08:39:38.196Z,21.13
2018-02-19T08:41:41.819Z,25.97
2018-02-19T08:43:45.354Z,23.13
2018-02-19T08:45:48.913Z,22.00
2018-02-19T08:47:52.456Z,21.30
2018-02-19T08:49:56.016Z,25.97
2018-02-19T08:51:59.652Z,22.97
2018-02-19T08:54:03.301Z,26.43
2018-02-19T08:56:07.779Z,26.87
2018-02-19T08:58:11.294Z,23.50
2018-02-19T09:00:14.925Z,25.57
2018-02-19T09:02:18.489Z,20.67
2018-02-19T09:04:22.006Z,27.10
2018-02-19T09:06:25.485Z,27.07
2018-02-19T09:08:28.950Z,27.40
2018-02-19T09:10:32.525Z,24.73
2018-02-19T09:12:35.973Z,23.87
2018-02-19T09:14:40.232Z,26.20
2018-02-19T09:16:43.941Z,22.03
2018-02-19T09:18:47.510Z,27.33
2018-02-19T09:20:51.914Z,20.13
2018-02-19T09:22:55.538Z,22.33
2018-02-19T09:24:59.849Z,22.73
2018-02-19T09:27:04.207Z,21.83
2018-02-19T09:29:07.733Z,19.90
2018-02-19T09:31:12.046Z,18.67
2018-02-19T09:33:15.601Z,20.17
2018-02-19T09:35:19.206Z,21.43
2018-02-19T09:37:22.769Z,24.00
2018-02-19T09:39:27.138Z,23.97
2018-02-19T09:41:36.907Z,26.40
2018-02-19T09:45:55.568Z,25.23
2018-02-19T09:48:00.090Z,22.00
2018-02-19T09:50:03.853Z,21.70
2018-02-19T09:52:08.206Z,23.10
2018-02-19T09:54:11.866Z,20.77
2018-02-19T09:56:16.178Z,26.80
2018-02-19T09:58:19.695Z,24.43
2018-02-19T10:00:24.030Z,23.73
2018-02-19T10:02:27.514Z,21.90
2018-02-19T10:04:31.132Z,24.20
2018-02-19T10:06:34.672Z,23.57
2018-02-19T10:08:38.129Z,20.10
2018-02-19T10:10:42.418Z,18.30
2018-02-19T10:12:46.607Z,24.53
2018-02-19T10:14:50.149Z,22.40
2018-02-19T10:16:53.626Z,23.40
2018-02-19T10:18:57.898Z,22.10
2018-02-19T10:21:02.272Z,22.20
2018-02-19T10:23:05.878Z,21.63
2018-02-19T10:25:09.383Z,24.27
2018-02-19T10:27:14.106Z,25.93
2018-02-19T10:29:17.693Z,22.00
2018-02-19T10:31:21.225Z,23.60
2018-02-19T10:33:25.627Z,27.70
2018-02-19T10:35:29.189Z,20.40
2018-02-19T10:37:33.069Z,29.30
2018-02-19T10:39:36.688Z,22.73
2018-02-19T10:41:40.491Z,26.77
2018-02-19T10:43:44.698Z,22.47
2018-02-19T10:45:48.400Z,23.30
2018-02-19T10:47:52.641Z,25.27
2018-02-19T10:49:56.936Z,24.57
2018-02-19T10:52:00.609Z,20.33
2018-02-19T10:54:04.205Z,22.33
2018-02-19T10:56:08.589Z,25.33
2018-02-19T10:58:12.921Z,21.97
2018-02-19T11:00:17.807Z,23.27
2018-02-19T11:02:21.568Z,22.70
2018-02-19T11:04:25.154Z,23.73
2018-02-19T11:06:28.692Z,25.13
2018-02-19T11:08:32.270Z,20.60
2018-02-19T11:10:35.881Z,24.40
2018-02-19T11:12:39.582Z,24.13
2018-02-19T11:14:43.131Z,29.90
2018-02-19T11:16:46.845Z,24.90
2018-02-19T11:18:51.360Z,21.43
2018-02-19T11:20:55.061Z,27.10
2018-02-19T11:22:58.617Z,22.50
2018-02-19T11:25:02.142Z,24.47
2018-02-19T11:27:06.531Z,23.57
2018-02-19T11:29:10.097Z,22.00
2018-02-19T11:31:13.569Z,20.97
2018-02-19T11:33:17.068Z,24.57
2018-02-19T11:35:21.444Z,22.67
2018-02-19T11:37:25.804Z,22.40
2018-02-19T11:39:29.356Z,22.77
2018-02-19T11:41:32.955Z,19.03
2018-02-19T11:43:36.367Z,20.30
2018-02-19T11:45:39.907Z,22.03
2018-02-19T11:47:44.361Z,23.40
2018-02-19T11:49:47.964Z,18.37
2018-02-19T11:51:52.220Z,21.80
2018-02-19T11:53:55.668Z,18.33
2018-02-19T11:55:59.229Z,18.90
2018-02-19T11:58:02.720Z,23.90
2018-02-19T12:00:06.316Z,20.43
2018-02-19T12:02:09.806Z,17.13
2018-02-19T12:04:13.496Z,22.20
2018-02-19T12:06:17.033Z,19.00
2018-02-19T12:08:20.572Z,22.47
2018-02-19T12:10:24.052Z,23.80
2018-02-19T12:12:27.710Z,21.17
2018-02-19T12:14:31.201Z,24.53
2018-02-19T12:16:35.063Z,23.73
2018-02-19T12:18:39.325Z,27.67
2018-02-19T12:20:42.872Z,24.73
2018-02-19T12:22:46.442Z,24.77
2018-02-19T12:24:50.067Z,22.17
2018-02-19T12:26:53.630Z,25.80
2018-02-19T12:28:57.220Z,21.93
2018-02-19T12:31:01.923Z,24.53
2018-02-19T12:33:05.573Z,25.40
2018-02-19T12:35:09.300Z,25.70
2018-02-19T12:37:12.973Z,22.10
2018-02-19T12:39:16.534Z,22.20
2018-02-19T12:41:20.096Z,22.83
2018-02-19T12:43:23.603Z,22.20
2018-02-19T12:45:27.111Z,25.07
2018-02-19T12:47:30.586Z,24.10
2018-02-19T12:49:34.129Z,22.30
2018-02-19T12:51:37.573Z,24.43
2018-02-19T12:53:41.030Z,24.23
2018-02-19T12:55:44.510Z,22.57
2018-02-19T12:57:48.007Z,23.57
2018-02-19T12:59:51.525Z,25.00
2018-02-19T13:01:55.151Z,21.23
2018-02-19T13:03:59.350Z,23.27
2018-02-19T13:06:02.892Z,25.20
2018-02-19T13:08:07.301Z,22.40
2018-02-19T13:10:10.829Z,23.53
2018-02-19T13:12:14.484Z,25.80
2018-02-19T13:14:17.983Z,25.40
2018-02-19T13:16:21.518Z,21.97
2018-02-19T13:18:26.086Z,25.97
2018-02-19T13:20:29.545Z,26.93
2018-02-19T13:22:33.875Z,22.40
2018-02-19T13:24:38.063Z,28.90
2018-02-19T13:26:41.616Z,22.90
2018-02-19T13:28:45.104Z,23.97
2018-02-19T13:30:48.565Z,23.10
2018-02-19T13:32:52.298Z,24.80
2018-02-19T13:34:55.800Z,23.73
2018-02-19T13:36:59.247Z,20.30
2018-02-19T13:39:02.849Z,23.87
2018-02-19T13:41:06.604Z,24.57
2018-02-19T13:43:10.860Z,21.80
2018-02-19T13:45:14.634Z,28.40
2018-02-19T13:47:18.995Z,23.57
2018-02-19T13:49:22.650Z,21.50
2018-02-19T13:51:26.165Z,23.57
2018-02-19T13:53:30.475Z,21.23
2018-02-19T13:55:34.128Z,21.60
2018-02-19T13:57:37.662Z,22.17
2018-02-19T13:59:41.878Z,29.23
2018-02-19T14:01:45.223Z,23.30
2018-02-19T14:03:48.563Z,24.80
2018-02-19T14:05:51.918Z,28.03
2018-02-19T14:07:56.047Z,23.00
2018-02-19T14:09:59.419Z,23.70
2018-02-19T14:12:02.749Z,25.10
2018-02-19T14:14:06.104Z,21.40
2018-02-19T14:16:09.483Z,23.30
2018-02-19T14:18:12.828Z,22.27
2018-02-19T14:20:16.208Z,24.17
2018-02-19T14:22:19.534Z,22.50
2018-02-19T14:24:22.934Z,25.77
2018-02-19T14:26:26.303Z,21.60
2018-02-19T14:28:29.648Z,20.77
2018-02-19T14:30:32.978Z,23.23
2018-02-19T14:32:36.330Z,22.20
2018-02-19T14:34:39.705Z,25.07
2018-02-19T14:36:43.139Z,31.00
2018-02-19T14:38:46.479Z,22.47
2018-02-19T14:40:49.830Z,24.43
2018-02-19T14:42:53.254Z,21.80
2018-02-19T14:44:56.684Z,23.93
2018-02-19T14:47:00.091Z,23.27
2018-02-19T14:49:03.421Z,23.67
2018-02-19T14:51:07.532Z,23.40
2018-02-19T14:53:10.982Z,21.17
2018-02-19T14:55:14.319Z,22.00
2018-02-19T14:57:18.429Z,23.40
2018-02-19T14:59:21.818Z,31.03
2018-02-19T15:01:26.018Z,24.60
2018-02-19T15:03:29.409Z,21.23
2018-02-19T15:05:32.727Z,26.70
2018-02-19T15:07:36.089Z,25.33
2018-02-19T15:09:40.271Z,24.80
2018-02-19T15:11:43.640Z,25.53
2018-02-19T15:13:47.761Z,25.93
2018-02-19T15:15:51.136Z,22.27
2018-02-19T15:17:54.493Z,21.40
2018-02-19T15:19:58.673Z,25.17
2018-02-19T15:22:02.016Z,26.50
2018-02-19T15:24:05.411Z,25.00
2018-02-19T15:26:09.521Z,24.17
2018-02-19T15:28:12.909Z,25.83
2018-02-19T15:30:16.285Z,24.73
2018-02-19T15:32:19.650Z,24.17
2018-02-19T15:34:22.988Z,34.80
2018-02-19T15:36:26.358Z,25.43
2018-02-19T15:38:29.710Z,29.43
2018-02-19T15:40:33.126Z,26.07
2018-02-19T15:42:36.468Z,28.43
2018-02-19T15:44:39.831Z,27.00
2018-02-19T15:46:43.250Z,34.70
2018-02-19T15:48:46.587Z,26.53
2018-02-19T15:50:49.952Z,31.10
2018-02-19T15:52:53.300Z,31.27
2018-02-19T15:54:56.672Z,29.17
2018-02-19T15:57:00.060Z,33.77
2018-02-19T15:59:03.458Z,30.40
2018-02-19T16:01:07.696Z,27.40
2018-02-19T16:03:11.109Z,27.90
2018-02-19T16:05:14.583Z,23.70
2018-02-19T16:07:18.030Z,29.17
2018-02-19T16:09:21.481Z,30.30
2018-02-19T16:11:24.970Z,27.40
2018-02-19T16:13:28.778Z,28.77
2018-02-19T16:15:32.440Z,26.43
2018-02-19T16:17:36.663Z,28.00
2018-02-19T16:19:40.843Z,30.57
2018-02-19T16:21:45.821Z,28.97
2018-02-19T16:23:49.617Z,28.90
2018-02-19T16:25:53.086Z,31.27
2018-02-19T16:27:56.758Z,27.07
2018-02-19T16:30:01.219Z,30.60
2018-02-19T16:32:04.787Z,29.97
2018-02-19T16:34:09.077Z,26.33
2018-02-19T16:36:12.603Z,31.93
2018-02-19T16:38:16.436Z,29.30
2018-02-19T16:40:19.875Z,28.60
2018-02-19T16:42:23.285Z,31.07
2018-02-19T16:44:26.773Z,30.37
2018-02-19T16:46:31.265Z,34.60
2018-02-19T16:48:34.814Z,30.30
2018-02-19T16:50:39.313Z,29.10
2018-02-19T16:52:43.920Z,38.90
2018-02-19T16:54:47.466Z,31.63
2018-02-19T16:56:51.615Z,35.37
2018-02-19T16:58:55.017Z,31.30
2018-02-19T17:00:58.513Z,31.67
2018-02-19T17:03:02.106Z,29.50
2018-02-19T17:05:05.674Z,34.80
2018-02-19T17:07:09.294Z,32.13
2018-02-19T17:09:13.093Z,32.40
2018-02-19T17:11:16.731Z,30.20
2018-02-19T17:13:20.663Z,33.80
2018-02-19T17:15:25.589Z,31.87
2018-02-19T17:17:29.513Z,35.57
2018-02-19T17:19:33.276Z,38.00
2018-02-19T17:21:37.026Z,32.63
2018-02-19T17:23:42.163Z,31.43
2018-02-19T17:25:45.848Z,31.33
2018-02-19T17:27:50.193Z,34.93
2018-02-19T17:29:53.749Z,31.17
2018-02-19T17:31:57.399Z,28.80
2018-02-19T17:34:00.850Z,37.20
2018-02-19T17:36:04.424Z,32.93
2018-02-19T17:38:08.769Z,29.40
2018-02-19T17:40:12.226Z,33.83
2018-02-19T17:42:16.603Z,41.40
2018-02-19T17:44:20.012Z,32.23
2018-02-19T17:46:23.504Z,32.73
2018-02-19T17:48:27.738Z,35.07
2018-02-19T17:50:31.331Z,33.00
2018-02-19T17:52:35.104Z,36.07
2018-02-19T17:54:38.961Z,29.47
2018-02-19T17:56:42.442Z,40.47
2018-02-19T17:58:46.862Z,35.87
2018-02-19T18:00:50.750Z,37.80
2018-02-19T18:02:55.596Z,31.53
2018-02-19T18:04:59.640Z,36.60
2018-02-19T18:07:02.980Z,38.63
2018-02-19T18:09:07.197Z,36.63
2018-02-19T18:11:11.361Z,41.00
2018-02-19T18:13:14.775Z,39.43
2018-02-19T18:15:18.297Z,37.90
2018-02-19T18:17:22.487Z,38.07
2018-02-19T18:19:26.694Z,41.03
2018-02-19T18:21:30.102Z,43.50
2018-02-19T18:23:34.222Z,39.87
2018-02-19T18:25:37.659Z,35.03
2018-02-19T18:27:41.026Z,42.13
2018-02-19T18:29:44.387Z,39.40
2018-02-19T18:31:47.894Z,37.33
2018-02-19T18:33:51.326Z,41.93
2018-02-19T18:35:54.796Z,42.97
2018-02-19T18:37:58.945Z,38.17
2018-02-19T18:40:02.379Z,49.03
2018-02-19T18:42:06.771Z,39.23
2018-02-19T18:44:11.013Z,37.70
2018-02-19T18:46:14.644Z,41.07
2018-02-19T18:48:18.178Z,43.83
2018-02-19T18:50:21.663Z,33.20
2018-02-19T18:52:25.163Z,35.77
2018-02-19T18:54:28.533Z,37.07
2018-02-19T18:56:31.950Z,33.63
2018-02-19T18:58:35.392Z,40.10
2018-02-19T19:00:39.022Z,40.80
2018-02-19T19:02:42.552Z,35.10
2018-02-19T19:04:46.040Z,41.20
2018-02-19T19:06:49.553Z,39.87
2018-02-19T19:09:05.582Z,41.33
2018-02-19T19:11:09.201Z,42.20
2018-02-19T19:13:13.324Z,45.17
2018-02-19T19:15:16.816Z,40.53
2018-02-19T19:17:20.163Z,41.63
2018-02-19T19:19:23.659Z,44.17
2018-02-19T19:21:27.348Z,38.33
2018-02-19T19:23:31.832Z,44.87
2018-02-19T19:25:36.174Z,44.47
2018-02-19T19:27:40.356Z,45.53
2018-02-19T19:29:44.253Z,41.80
2018-02-19T19:31:47.791Z,37.50
2018-02-19T19:33:51.138Z,42.80
2018-02-19T19:35:54.530Z,44.87
2018-02-19T19:37:59.169Z,46.10
2018-02-19T19:40:02.994Z,51.43
2018-02-19T19:42:06.402Z,42.27
2018-02-19T19:44:10.307Z,49.50
2018-02-19T19:46:13.719Z,48.43
2018-02-19T19:48:17.879Z,48.60
2018-02-19T19:50:21.351Z,47.17
2018-02-19T19:52:25.981Z,46.97
2018-02-19T19:54:31.617Z,44.60
2018-02-19T19:56:36.251Z,43.30
2018-02-19T19:58:42.679Z,44.70
2018-02-19T20:03:02.881Z,44.23
2018-02-19T20:05:06.318Z,43.30
2018-02-19T20:07:11.457Z,42.03
2018-02-19T20:09:16.517Z,40.13
2018-02-19T20:11:23.015Z,43.83
2018-02-19T20:13:26.917Z,39.67
2018-02-19T20:15:30.316Z,41.27
2018-02-19T20:17:35.372Z,39.67
2018-02-19T20:19:40.038Z,38.83
2018-02-19T20:21:43.542Z,38.10
2018-02-19T20:23:49.536Z,41.90
2018-02-19T20:25:53.309Z,39.97
2018-02-19T20:27:57.102Z,44.57
2018-02-19T20:30:04.325Z,45.33
2018-02-19T20:32:09.662Z,45.00
2018-02-19T20:34:19.251Z,49.23
2018-02-19T20:36:22.701Z,43.47
2018-02-19T20:38:26.092Z,43.33
2018-02-19T20:40:29.504Z,38.00
2018-02-19T20:42:33.617Z,41.37
2018-02-19T20:44:37.717Z,42.40
2018-02-19T20:46:42.318Z,53.53
2018-02-19T20:48:45.649Z,48.77
2018-02-19T20:50:49.007Z,41.73
2018-02-19T20:52:53.034Z,44.40
2018-02-19T20:54:56.537Z,44.10
2018-02-19T20:57:00.018Z,46.77
2018-02-19T20:59:03.407Z,45.23
2018-02-19T21:01:06.785Z,43.20
2018-02-19T21:03:11.929Z,43.37
2018-02-19T21:05:15.844Z,39.70
2018-02-19T21:07:19.200Z,44.40
2018-02-19T21:09:22.893Z,43.53
2018-02-19T21:11:26.343Z,44.40
2018-02-19T21:13:29.704Z,41.53
2018-02-19T21:15:34.131Z,40.07
2018-02-19T21:17:39.626Z,41.00
2018-02-19T21:19:45.254Z,39.40
2018-02-19T21:21:50.642Z,42.90
2018-02-19T21:23:54.214Z,41.00
2018-02-19T21:26:01.211Z,36.70
2018-02-19T21:28:09.101Z,41.97
2018-02-19T21:30:13.469Z,37.93
2018-02-19T21:32:21.801Z,39.73
2018-02-19T21:34:25.762Z,37.10
2018-02-19T21:36:31.246Z,41.30
2018-02-19T21:38:35.713Z,41.57
2018-02-19T21:40:41.159Z,40.70
2018-02-19T21:42:45.251Z,42.77
2018-02-19T21:44:51.662Z,45.43
2018-02-19T21:46:57.073Z,37.03
2018-02-19T21:49:01.412Z,45.40
2018-02-19T21:51:04.794Z,41.50
2018-02-19T21:53:09.342Z,39.00
2018-02-19T21:55:12.681Z,40.57
2018-02-19T21:57:16.906Z,44.30
2018-02-19T21:59:21.419Z,40.33
2018-02-19T22:01:25.228Z,43.50
2018-02-19T22:03:28.584Z,43.63
2018-02-19T22:05:33.854Z,41.37
2018-02-19T22:07:38.303Z,42.77
2018-02-19T22:09:41.995Z,37.40
2018-02-19T22:11:46.660Z,38.70
2018-02-19T22:13:49.990Z,39.77
2018-02-19T22:15:54.963Z,39.70
2018-02-19T22:17:59.210Z,40.33
2018-02-19T22:20:02.958Z,39.07
2018-02-19T22:22:07.269Z,36.30
2018-02-19T22:24:11.525Z,42.30
2018-02-19T22:26:15.464Z,40.40
2018-02-19T22:28:19.869Z,38.47
2018-02-19T22:30:23.982Z,38.93
2018-02-19T22:32:27.720Z,45.10
2018-02-19T22:34:33.562Z,50.40
2018-02-19T22:36:37.212Z,40.70
2018-02-19T22:38:41.336Z,41.33
2018-02-19T22:40:45.705Z,49.23
2018-02-19T22:42:49.749Z,46.83
2018-02-19T22:44:53.159Z,45.10
2018-02-19T22:46:56.519Z,51.43
2018-02-19T22:48:59.898Z,50.83
2018-02-19T22:51:03.446Z,47.37
2018-02-19T22:53:06.791Z,58.60
2018-02-19T22:55:10.267Z,58.03
2018-02-19T22:57:15.443Z,54.83
2018-02-19T22:59:18.773Z,51.23
2018-02-19T23:01:22.177Z,48.40
2018-02-19T23:03:26.120Z,44.07
2018-02-19T23:05:30.975Z,50.07
2018-02-19T23:07:35.966Z,44.47
2018-02-19T23:09:39.367Z,51.63
2018-02-19T23:11:43.968Z,55.30
2018-02-19T23:13:47.712Z,51.40
2018-02-19T23:15:52.216Z,49.27
2018-02-19T23:17:56.548Z,50.50
2018-02-19T23:19:59.910Z,48.50
2018-02-19T23:22:04.056Z,46.33
2018-02-19T23:24:08.402Z,52.83
2018-02-19T23:26:12.794Z,45.37
2018-02-19T23:28:16.207Z,49.10
2018-02-19T23:30:19.653Z,44.60
2018-02-19T23:32:23.038Z,49.20
2018-02-19T23:34:26.392Z,50.17
2018-02-19T23:36:29.750Z,51.70
2018-02-19T23:38:33.128Z,52.17
2018-02-19T23:40:36.470Z,50.03
2018-02-19T23:42:39.847Z,57.23
2018-02-19T23:44:43.220Z,49.00
2018-02-19T23:46:47.319Z,53.73
2018-02-19T23:48:50.651Z,50.00
2018-02-19T23:50:54.016Z,47.90
2018-02-19T23:52:57.393Z,48.60
2018-02-19T23:55:00.730Z,50.20
2018-02-19T23:57:04.070Z,48.40
2018-02-19T23:59:07.422Z,46.50
